createdAt,value
2023-05-18T00:00:11.208Z,2.38
2023-05-18T00:02:42.509Z,1.60
2023-05-18T00:05:11.712Z,1.98
2023-05-18T00:07:39.528Z,1.75
2023-05-18T00:10:09.642Z,1.80
2023-05-18T00:12:36.384Z,1.85
2023-05-18T00:15:03.249Z,1.93
2023-05-18T00:17:33.010Z,1.40
2023-05-18T00:20:05.153Z,1.50
2023-05-18T00:22:34.002Z,1.95
2023-05-18T00:25:00.772Z,2.53
2023-05-18T00:27:27.379Z,1.57
2023-05-18T00:29:56.238Z,2.30
2023-05-18T00:32:27.433Z,1.75
2023-05-18T00:34:54.059Z,2.17
2023-05-18T00:37:25.463Z,1.80
2023-05-18T00:39:54.458Z,2.10
2023-05-18T00:42:23.464Z,1.88
2023-05-18T00:44:50.092Z,1.77
2023-05-18T00:47:18.510Z,2.03
2023-05-18T00:49:45.234Z,1.92
2023-05-18T00:52:11.818Z,2.67
2023-05-18T00:54:43.132Z,1.92
2023-05-18T00:57:12.288Z,2.15
2023-05-18T00:59:42.032Z,2.10
2023-05-18T01:02:12.173Z,1.90
2023-05-18T01:04:43.082Z,1.53
2023-05-18T01:07:11.191Z,2.30
2023-05-18T01:09:40.063Z,2.10
2023-05-18T01:12:13.732Z,1.70
2023-05-18T01:15:03.547Z,2.47
2023-05-18T01:17:53.105Z,1.97
2023-05-18T01:20:26.211Z,2.42
2023-05-18T01:23:30.050Z,2.72
2023-05-18T01:25:56.590Z,2.30
2023-05-18T01:28:28.142Z,2.00
2023-05-18T01:30:56.579Z,2.00
2023-05-18T01:33:25.685Z,2.15
2023-05-18T01:35:52.807Z,2.08
2023-05-18T01:38:28.185Z,2.50
2023-05-18T01:41:14.162Z,2.20
2023-05-18T01:44:12.511Z,1.73
2023-05-18T01:47:08.105Z,2.00
2023-05-18T01:49:46.182Z,2.17
2023-05-18T01:52:25.906Z,1.80
2023-05-18T01:54:56.302Z,2.10
2023-05-18T01:57:29.658Z,1.87
2023-05-18T02:00:00.225Z,1.85
2023-05-18T02:02:32.049Z,2.05
2023-05-18T02:05:01.468Z,2.08
2023-05-18T02:07:30.252Z,2.05
2023-05-18T02:09:56.861Z,1.77
2023-05-18T02:12:25.877Z,1.58
2023-05-18T02:14:58.449Z,2.35
2023-05-18T02:17:27.325Z,1.88
2023-05-18T02:19:53.971Z,2.40
2023-05-18T02:22:23.563Z,1.80
2023-05-18T02:24:53.938Z,2.17
2023-05-18T02:27:20.850Z,1.63
2023-05-18T02:29:47.411Z,1.98
2023-05-18T02:32:14.287Z,2.45
2023-05-18T02:34:42.280Z,2.00
2023-05-18T02:37:09.164Z,1.80
2023-05-18T02:39:37.951Z,1.90
2023-05-18T02:42:04.760Z,2.38
2023-05-18T02:44:33.872Z,1.92
2023-05-18T02:47:03.513Z,2.20
2023-05-18T02:49:33.483Z,1.75
2023-05-18T02:52:03.053Z,2.70
2023-05-18T02:54:32.630Z,2.60
2023-05-18T02:56:59.290Z,2.20
2023-05-18T02:59:28.100Z,2.33
2023-05-18T03:01:54.732Z,2.35
2023-05-18T03:04:26.160Z,1.63
2023-05-18T03:06:57.467Z,1.98
2023-05-18T03:09:24.597Z,2.38
2023-05-18T03:11:51.868Z,2.00
2023-05-18T03:14:20.715Z,2.45
2023-05-18T03:16:47.289Z,2.60
2023-05-18T03:19:16.994Z,2.10
2023-05-18T03:21:46.102Z,2.25
2023-05-18T03:24:16.176Z,2.20
2023-05-18T03:26:45.110Z,1.83
2023-05-18T03:29:13.572Z,1.88
2023-05-18T03:31:42.515Z,2.72
2023-05-18T03:34:12.119Z,1.88
2023-05-18T03:36:40.931Z,2.23
2023-05-18T03:39:07.956Z,1.92
2023-05-18T03:41:39.120Z,1.98
2023-05-18T03:44:10.218Z,2.30
2023-05-18T03:46:39.294Z,2.17
2023-05-18T03:49:08.256Z,1.90
2023-05-18T03:51:37.414Z,1.95
2023-05-18T03:54:06.526Z,2.30
2023-05-18T03:56:35.378Z,2.15
2023-05-18T03:59:05.218Z,1.92
2023-05-18T04:01:34.946Z,2.47
2023-05-18T04:04:01.810Z,2.17
2023-05-18T04:06:28.488Z,1.70
2023-05-18T04:08:57.330Z,2.42
2023-05-18T04:11:26.657Z,2.05
2023-05-18T04:13:58.007Z,2.03
2023-05-18T04:16:24.691Z,2.08
2023-05-18T04:18:51.293Z,2.05
2023-05-18T04:21:19.436Z,2.15
2023-05-18T04:23:47.295Z,2.10
2023-05-18T04:26:14.001Z,2.33
2023-05-18T04:28:40.579Z,2.45
2023-05-18T04:31:07.242Z,1.83
2023-05-18T04:33:36.276Z,2.42
2023-05-18T04:36:05.063Z,2.20
2023-05-18T04:38:35.972Z,2.23
2023-05-18T04:41:08.782Z,2.00
2023-05-18T04:43:37.922Z,1.92
2023-05-18T04:46:07.380Z,2.03
2023-05-18T04:48:34.144Z,2.38
2023-05-18T04:51:01.495Z,1.90
2023-05-18T04:53:33.385Z,2.15
2023-05-18T04:56:03.133Z,2.30
2023-05-18T04:58:30.694Z,2.17
2023-05-18T05:00:57.458Z,1.95
2023-05-18T05:03:24.214Z,2.40
2023-05-18T05:05:51.086Z,2.78
2023-05-18T05:08:17.700Z,2.20
2023-05-18T05:10:44.290Z,2.58
2023-05-18T05:13:10.999Z,2.78
2023-05-18T05:15:37.728Z,2.27
2023-05-18T05:18:06.581Z,2.20
2023-05-18T05:20:36.258Z,2.20
2023-05-18T05:23:03.006Z,2.30
2023-05-18T05:25:29.882Z,2.30
2023-05-18T05:27:59.114Z,2.90
2023-05-18T05:30:27.947Z,2.50
2023-05-18T05:32:54.594Z,2.92
2023-05-18T05:35:23.800Z,2.58
2023-05-18T05:37:52.642Z,2.45
2023-05-18T05:40:19.222Z,2.77
2023-05-18T05:42:48.189Z,2.53
2023-05-18T05:45:14.840Z,2.53
2023-05-18T05:47:41.459Z,2.30
2023-05-18T05:50:08.307Z,2.25
2023-05-18T05:52:34.966Z,2.10
2023-05-18T05:55:01.657Z,2.35
2023-05-18T05:57:28.253Z,2.08
2023-05-18T05:59:54.816Z,2.53
2023-05-18T06:02:21.526Z,2.33
2023-05-18T06:04:48.234Z,2.00
2023-05-18T06:07:14.903Z,2.85
2023-05-18T06:09:41.533Z,2.85
2023-05-18T06:12:08.812Z,2.75
2023-05-18T06:14:35.432Z,3.20
2023-05-18T06:17:02.219Z,2.90
2023-05-18T06:19:28.947Z,3.95
2023-05-18T06:21:55.910Z,3.47
2023-05-18T06:24:22.488Z,2.90
2023-05-18T06:26:51.405Z,3.35
2023-05-18T06:29:18.653Z,2.50
2023-05-18T06:31:47.494Z,2.70
2023-05-18T06:34:17.031Z,2.80
2023-05-18T06:36:43.629Z,2.45
2023-05-18T06:39:13.201Z,2.90
2023-05-18T06:41:39.785Z,2.80
2023-05-18T06:44:06.417Z,2.67
2023-05-18T06:46:33.170Z,2.70
2023-05-18T06:49:02.181Z,2.60
2023-05-18T06:51:31.363Z,3.10
2023-05-18T06:54:00.033Z,3.17
2023-05-18T06:56:26.737Z,2.80
2023-05-18T06:58:53.369Z,3.38
2023-05-18T07:01:22.157Z,2.53
2023-05-18T07:03:53.379Z,3.38
2023-05-18T07:06:23.475Z,3.07
2023-05-18T07:08:50.116Z,2.70
2023-05-18T07:11:19.036Z,2.60
2023-05-18T07:13:45.792Z,2.60
2023-05-18T07:16:14.799Z,2.80
2023-05-18T07:18:43.679Z,3.20
2023-05-18T07:21:13.320Z,2.88
2023-05-18T07:23:39.974Z,2.80
2023-05-18T07:26:10.989Z,2.65
2023-05-18T07:28:38.767Z,2.75
2023-05-18T07:31:05.795Z,2.57
2023-05-18T07:33:32.926Z,2.65
2023-05-18T07:35:59.654Z,3.22
2023-05-18T07:38:28.616Z,3.13
2023-05-18T07:40:57.454Z,3.20
2023-05-18T07:43:26.604Z,3.27
2023-05-18T07:45:55.534Z,2.90
2023-05-18T07:48:22.222Z,3.20
2023-05-18T07:50:51.719Z,2.50
2023-05-18T07:53:20.690Z,3.10
2023-05-18T07:55:50.127Z,3.00
2023-05-18T07:58:19.080Z,2.67
2023-05-18T08:00:47.842Z,3.55
2023-05-18T08:03:19.749Z,2.70
2023-05-18T08:05:46.410Z,2.80
2023-05-18T08:08:18.764Z,2.63
2023-05-18T08:10:48.373Z,2.90
2023-05-18T08:13:14.920Z,3.20
2023-05-18T08:15:41.535Z,3.20
2023-05-18T08:18:08.144Z,3.13
2023-05-18T08:20:34.769Z,2.57
2023-05-18T08:23:01.376Z,3.10
2023-05-18T08:25:28.027Z,3.00
2023-05-18T08:27:57.100Z,3.03
2023-05-18T08:30:23.917Z,3.75
2023-05-18T08:32:53.068Z,3.27
2023-05-18T08:35:22.271Z,2.92
2023-05-18T08:37:51.227Z,3.53
2023-05-18T08:40:18.090Z,3.15
2023-05-18T08:43:21.211Z,3.55
2023-05-18T08:46:14.072Z,2.97
2023-05-18T08:48:44.753Z,3.00
2023-05-18T08:51:19.818Z,2.72
2023-05-18T08:53:54.152Z,2.97
2023-05-18T08:56:25.123Z,3.50
2023-05-18T08:58:55.807Z,2.70
2023-05-18T09:01:29.085Z,3.42
2023-05-18T09:04:03.254Z,3.10
2023-05-18T09:06:33.932Z,3.10
2023-05-18T09:09:04.611Z,2.90
2023-05-18T09:11:33.329Z,3.00
2023-05-18T09:14:00.883Z,3.22
2023-05-18T09:16:27.656Z,3.00
2023-05-18T09:18:54.950Z,2.90
2023-05-18T09:21:21.653Z,3.25
2023-05-18T09:23:51.487Z,3.20
2023-05-18T09:26:21.207Z,3.20
2023-05-18T09:28:52.283Z,3.50
2023-05-18T09:31:20.966Z,3.13
2023-05-18T09:33:48.486Z,3.28
2023-05-18T09:36:17.837Z,3.30
2023-05-18T09:38:46.712Z,3.00
2023-05-18T09:41:16.502Z,3.00
2023-05-18T09:43:44.801Z,2.80
2023-05-18T09:46:12.467Z,3.20
2023-05-18T09:48:46.055Z,3.20
2023-05-18T09:51:17.322Z,3.05
2023-05-18T09:53:56.966Z,3.15
2023-05-18T09:56:24.848Z,3.22
2023-05-18T09:58:51.816Z,2.95
2023-05-18T10:04:40.385Z,2.70
2023-05-18T10:07:22.383Z,3.08
2023-05-18T10:10:01.785Z,3.15
2023-05-18T10:12:30.990Z,3.00
2023-05-18T10:14:57.724Z,2.97
2023-05-18T10:17:27.373Z,3.75
2023-05-18T10:19:57.051Z,3.63
2023-05-18T10:22:28.713Z,3.45
2023-05-18T10:24:56.937Z,3.30
2023-05-18T10:27:30.227Z,3.20
2023-05-18T10:29:58.581Z,3.17
2023-05-18T10:32:30.527Z,3.22
2023-05-18T10:34:59.835Z,3.10
2023-05-18T10:37:30.889Z,3.47
2023-05-18T10:42:43.613Z,3.30
2023-05-18T10:45:10.638Z,3.50
2023-05-18T10:47:40.527Z,3.50
2023-05-18T10:50:09.066Z,3.60
2023-05-18T10:52:37.663Z,3.23
2023-05-18T10:55:09.031Z,3.42
2023-05-18T10:57:40.676Z,3.45
2023-05-18T11:00:10.828Z,3.03
2023-05-18T11:02:44.364Z,3.08
2023-05-18T11:05:12.159Z,3.03
2023-05-18T11:07:38.993Z,3.20
2023-05-18T11:10:10.780Z,2.90
2023-05-18T11:12:43.182Z,3.28
2023-05-18T11:15:10.166Z,3.13
2023-05-18T11:17:36.868Z,2.60
2023-05-18T11:20:04.593Z,3.17
2023-05-18T11:23:01.670Z,2.58
2023-05-18T11:25:31.302Z,2.97
2023-05-18T11:28:04.683Z,2.78
2023-05-18T11:30:31.508Z,2.63
2023-05-18T11:33:22.737Z,2.85
2023-05-18T11:36:08.712Z,2.85
2023-05-18T11:38:53.268Z,2.67
2023-05-18T11:41:32.064Z,2.75
2023-05-18T11:44:25.007Z,2.90
2023-05-18T11:47:02.503Z,2.78
2023-05-18T11:49:40.667Z,2.35
2023-05-18T11:52:27.375Z,2.45
2023-05-18T11:55:00.918Z,2.80
2023-05-18T11:57:36.539Z,2.83
2023-05-18T12:00:11.791Z,2.30
2023-05-18T12:02:39.426Z,3.10
2023-05-18T12:05:10.172Z,2.65
2023-05-18T12:07:42.967Z,3.00
2023-05-18T12:10:12.975Z,2.30
2023-05-18T12:12:41.006Z,3.17
2023-05-18T12:15:09.634Z,2.70
2023-05-18T12:17:44.779Z,2.47
2023-05-18T12:20:13.110Z,2.63
2023-05-18T12:22:41.217Z,3.13
2023-05-18T12:25:08.666Z,2.42
2023-05-18T12:27:42.767Z,2.30
2023-05-18T12:30:12.329Z,2.70
2023-05-18T12:32:42.558Z,2.53
2023-05-18T12:35:09.382Z,2.17
2023-05-18T12:37:45.959Z,2.58
2023-05-18T12:40:17.193Z,2.30
2023-05-18T12:43:00.210Z,2.42
2023-05-18T12:45:28.543Z,2.75
2023-05-18T12:48:06.820Z,2.70
2023-05-18T12:50:46.324Z,2.90
2023-05-18T12:53:13.636Z,3.00
2023-05-18T12:55:45.398Z,2.50
2023-05-18T12:58:19.116Z,2.38
2023-05-18T13:00:47.447Z,2.80
2023-05-18T13:03:23.013Z,2.22
2023-05-18T13:06:06.064Z,2.20
2023-05-18T13:08:36.661Z,2.30
2023-05-18T13:11:12.893Z,3.10
2023-05-18T13:14:04.137Z,1.93
2023-05-18T13:16:38.414Z,2.20
2023-05-18T13:19:09.739Z,2.42
2023-05-18T13:21:37.279Z,2.65
2023-05-18T13:24:04.914Z,2.30
2023-05-18T13:26:31.623Z,2.50
2023-05-18T13:28:58.767Z,2.22
2023-05-18T13:31:25.517Z,2.60
2023-05-18T13:33:52.294Z,2.22
2023-05-18T13:36:19.475Z,2.30
2023-05-18T13:38:46.513Z,2.13
2023-05-18T13:41:15.267Z,2.35
2023-05-18T13:43:45.154Z,2.33
2023-05-18T13:46:11.793Z,2.50
2023-05-18T13:48:38.394Z,2.15
2023-05-18T13:51:05.118Z,2.50
2023-05-18T13:53:31.862Z,2.53
2023-05-18T13:56:00.857Z,2.75
2023-05-18T13:58:27.401Z,2.25
2023-05-18T14:00:58.830Z,2.30
2023-05-18T14:03:25.747Z,1.93
2023-05-18T14:05:52.595Z,2.55
2023-05-18T14:08:19.222Z,2.20
2023-05-18T14:10:45.785Z,2.22
2023-05-18T14:13:12.465Z,2.40
2023-05-18T14:15:39.106Z,2.03
2023-05-18T14:18:05.972Z,2.15
2023-05-18T14:20:33.856Z,2.55
2023-05-18T14:23:04.656Z,1.67
2023-05-18T14:25:31.879Z,1.95
2023-05-18T14:28:01.069Z,1.83
2023-05-18T14:30:27.676Z,2.10
2023-05-18T14:32:59.250Z,1.90
2023-05-18T14:35:25.841Z,1.90
2023-05-18T14:37:52.421Z,1.90
2023-05-18T14:40:18.973Z,1.90
2023-05-18T14:42:52.247Z,2.10
2023-05-18T14:45:20.595Z,2.22
2023-05-18T14:47:47.517Z,2.42
2023-05-18T14:50:14.166Z,2.58
2023-05-18T14:52:42.975Z,2.23
2023-05-18T14:55:09.904Z,1.77
2023-05-18T14:57:36.583Z,2.13
2023-05-18T15:00:05.957Z,2.20
2023-05-18T15:02:34.947Z,1.85
2023-05-18T15:05:04.036Z,2.10
2023-05-18T15:07:30.787Z,2.00
2023-05-18T15:10:00.189Z,1.88
2023-05-18T15:12:26.766Z,1.60
2023-05-18T15:14:56.338Z,1.80
2023-05-18T15:17:25.448Z,2.00
2023-05-18T15:19:54.232Z,1.60
2023-05-18T15:22:23.272Z,1.75
2023-05-18T15:24:49.906Z,1.85
2023-05-18T15:27:16.725Z,2.63
2023-05-18T15:29:46.733Z,2.37
2023-05-18T15:32:13.488Z,2.30
2023-05-18T15:34:42.505Z,2.10
2023-05-18T15:37:13.791Z,2.05
2023-05-18T15:39:40.511Z,1.95
2023-05-18T15:42:07.258Z,1.67
2023-05-18T15:44:36.132Z,1.98
2023-05-18T15:47:02.965Z,1.90
2023-05-18T15:49:29.699Z,1.92
2023-05-18T15:51:56.558Z,2.00
2023-05-18T15:54:25.393Z,1.73
2023-05-18T15:56:52.134Z,1.70
2023-05-18T15:59:18.716Z,2.05
2023-05-18T16:01:45.338Z,2.35
2023-05-18T16:04:14.222Z,1.92
2023-05-18T16:06:41.030Z,2.90
2023-05-18T16:09:07.635Z,2.20
2023-05-18T16:11:37.176Z,2.25
2023-05-18T16:14:06.737Z,2.05
2023-05-18T16:16:35.684Z,2.00
2023-05-18T16:19:03.307Z,2.43
2023-05-18T16:21:30.027Z,1.70
2023-05-18T16:23:59.219Z,1.80
2023-05-18T16:26:32.327Z,1.80
2023-05-18T16:29:06.851Z,2.25
2023-05-18T16:31:33.554Z,2.00
2023-05-18T16:34:00.153Z,2.03
2023-05-18T16:36:26.853Z,1.98
2023-05-18T16:38:55.861Z,2.97
2023-05-18T16:41:22.482Z,2.47
2023-05-18T16:43:52.481Z,2.67
2023-05-18T16:46:20.057Z,2.15
2023-05-18T16:48:49.110Z,2.35
2023-05-18T16:51:17.768Z,1.95
2023-05-18T16:53:46.537Z,2.05
2023-05-18T16:56:15.441Z,1.97
2023-05-18T16:58:42.057Z,1.75
2023-05-18T17:01:19.248Z,1.75
2023-05-18T17:03:53.373Z,1.83
2023-05-18T17:06:25.068Z,1.90
2023-05-18T17:08:57.556Z,1.83
2023-05-18T17:11:29.497Z,1.77
2023-05-18T17:13:59.954Z,1.83
2023-05-18T17:16:27.328Z,1.95
2023-05-18T17:18:55.003Z,2.00
2023-05-18T17:21:23.719Z,1.70
2023-05-18T17:23:50.459Z,1.80
2023-05-18T17:26:20.156Z,1.73
2023-05-18T17:28:49.785Z,1.90
2023-05-18T17:31:21.059Z,1.90
2023-05-18T17:33:47.724Z,1.80
2023-05-18T17:36:18.366Z,1.80
2023-05-18T17:38:47.456Z,2.00
2023-05-18T17:41:14.229Z,2.00
2023-05-18T17:43:40.905Z,1.90
2023-05-18T17:46:09.710Z,1.70
2023-05-18T17:48:36.300Z,1.85
2023-05-18T17:51:05.368Z,1.70
2023-05-18T17:53:31.930Z,1.90
2023-05-18T17:55:58.762Z,2.05
2023-05-18T17:58:25.398Z,2.10
2023-05-18T18:00:52.050Z,1.70
2023-05-18T18:03:22.376Z,1.90
2023-05-18T18:05:51.392Z,2.10
2023-05-18T18:08:20.112Z,1.90
2023-05-18T18:10:46.710Z,1.70
2023-05-18T18:13:14.488Z,1.92
2023-05-18T18:15:43.601Z,2.20
2023-05-18T18:18:11.038Z,2.17
2023-05-18T18:20:37.700Z,1.90
2023-05-18T18:23:09.318Z,2.10
2023-05-18T18:25:35.972Z,2.03
2023-05-18T18:28:02.631Z,2.00
2023-05-18T18:30:31.771Z,1.98
2023-05-18T18:32:58.651Z,2.08
2023-05-18T18:35:25.375Z,1.77
2023-05-18T18:37:54.276Z,1.80
2023-05-18T18:40:21.022Z,1.85
2023-05-18T18:42:47.882Z,2.05
2023-05-18T18:45:14.471Z,2.10
2023-05-18T18:47:43.434Z,2.00
2023-05-18T18:50:12.589Z,2.08
2023-05-18T18:52:39.181Z,1.70
2023-05-18T18:55:08.505Z,1.83
2023-05-18T18:57:37.354Z,1.92
2023-05-18T19:00:06.871Z,1.90
2023-05-18T19:02:36.492Z,1.92
2023-05-18T19:05:05.946Z,1.90
2023-05-18T19:07:33.732Z,1.80
2023-05-18T19:10:00.485Z,1.60
2023-05-18T19:12:27.438Z,1.90
2023-05-18T19:14:54.015Z,1.90
2023-05-18T19:17:21.213Z,1.90
2023-05-18T19:19:50.454Z,2.42
2023-05-18T19:22:17.096Z,1.80
2023-05-18T19:24:43.701Z,2.10
2023-05-18T19:27:13.342Z,2.00
2023-05-18T19:29:42.126Z,1.77
2023-05-18T19:32:11.397Z,2.15
2023-05-18T19:34:38.227Z,1.77
2023-05-18T19:37:04.875Z,1.90
2023-05-18T19:39:33.966Z,1.40
2023-05-18T19:42:00.914Z,1.70
2023-05-18T19:44:27.462Z,2.50
2023-05-18T19:46:56.143Z,2.03
2023-05-18T19:49:22.753Z,1.77
2023-05-18T19:51:51.729Z,1.85
2023-05-18T19:54:20.738Z,1.45
2023-05-18T19:56:49.567Z,1.92
2023-05-18T19:59:16.180Z,1.83
2023-05-18T20:01:42.751Z,1.90
2023-05-18T20:04:09.403Z,1.50
2023-05-18T20:06:38.501Z,2.10
2023-05-18T20:09:07.626Z,1.70
2023-05-18T20:11:34.209Z,2.08
2023-05-18T20:14:03.271Z,1.60
2023-05-18T20:16:29.911Z,1.77
2023-05-18T20:19:01.772Z,1.70
2023-05-18T20:21:28.414Z,1.70
2023-05-18T20:23:55.077Z,2.33
2023-05-18T20:26:24.071Z,2.03
2023-05-18T20:28:53.658Z,1.52
2023-05-18T20:31:21.582Z,1.70
2023-05-18T20:33:48.190Z,1.73
2023-05-18T20:36:15.553Z,1.77
2023-05-18T20:38:47.027Z,2.00
2023-05-18T20:41:13.576Z,2.03
2023-05-18T20:43:40.152Z,1.83
2023-05-18T20:46:08.152Z,1.60
2023-05-18T20:48:35.924Z,1.92
2023-05-18T20:51:05.398Z,1.70
2023-05-18T20:53:32.097Z,1.50
2023-05-18T20:56:01.242Z,1.58
2023-05-18T20:58:30.114Z,1.58
2023-05-18T21:00:56.724Z,1.90
2023-05-18T21:03:23.409Z,1.67
2023-05-18T21:05:55.005Z,1.80
2023-05-18T21:08:21.616Z,1.92
2023-05-18T21:10:48.227Z,1.83
2023-05-18T21:13:15.110Z,1.92
2023-05-18T21:15:41.813Z,1.47
2023-05-18T21:18:10.987Z,1.70
2023-05-18T21:20:39.790Z,1.58
2023-05-18T21:23:08.767Z,1.88
2023-05-18T21:25:35.509Z,1.80
2023-05-18T21:28:04.414Z,1.80
2023-05-18T21:30:33.519Z,1.80
2023-05-18T21:33:02.950Z,2.00
2023-05-18T21:35:29.927Z,1.75
2023-05-18T21:37:56.877Z,2.08
2023-05-18T21:40:23.558Z,1.70
2023-05-18T21:42:50.106Z,1.48
2023-05-18T21:45:20.769Z,1.52
2023-05-18T21:47:49.048Z,1.95
2023-05-18T21:50:15.908Z,2.00
2023-05-18T21:52:42.531Z,1.60
2023-05-18T21:55:09.439Z,1.48
2023-05-18T21:57:38.281Z,1.98
2023-05-18T22:00:06.511Z,1.48
2023-05-18T22:02:35.946Z,2.00
2023-05-18T22:05:04.742Z,1.97
2023-05-18T22:07:31.337Z,1.95
2023-05-18T22:09:57.914Z,1.60
2023-05-18T22:12:24.537Z,1.52
2023-05-18T22:14:56.450Z,1.70
2023-05-18T22:17:26.034Z,1.60
2023-05-18T22:19:52.729Z,1.73
2023-05-18T22:22:30.132Z,1.60
2023-05-18T22:24:57.687Z,1.80
2023-05-18T22:27:24.308Z,1.70
2023-05-18T22:29:50.960Z,1.70
2023-05-18T22:32:17.987Z,1.60
2023-05-18T22:34:44.752Z,1.98
2023-05-18T22:37:11.308Z,1.70
2023-05-18T22:39:40.938Z,1.40
2023-05-18T22:42:07.626Z,1.63
2023-05-18T22:44:34.292Z,1.80
2023-05-18T22:47:03.273Z,1.85
2023-05-18T22:49:35.844Z,1.40
2023-05-18T22:52:08.172Z,1.90
2023-05-18T22:54:37.789Z,1.50
2023-05-18T22:57:04.664Z,1.90
2023-05-18T22:59:31.284Z,1.70
2023-05-18T23:01:58.409Z,2.10
2023-05-18T23:04:27.996Z,1.98
2023-05-18T23:06:57.619Z,1.60
2023-05-18T23:09:30.593Z,1.85
2023-05-18T23:11:59.581Z,1.70
2023-05-18T23:14:32.501Z,1.70
2023-05-18T23:17:02.699Z,2.22
2023-05-18T23:19:29.329Z,1.60
2023-05-18T23:21:56.491Z,1.83
2023-05-18T23:24:23.128Z,1.90
2023-05-18T23:26:49.700Z,1.60
2023-05-18T23:30:12.529Z,1.65
2023-05-18T23:32:39.599Z,1.60
2023-05-18T23:35:09.615Z,2.33
2023-05-18T23:37:41.490Z,2.00
2023-05-18T23:40:15.365Z,2.45
2023-05-18T23:42:42.301Z,1.63
2023-05-18T23:45:09.701Z,1.60
2023-05-18T23:47:36.826Z,1.70
2023-05-18T23:50:06.305Z,1.80
2023-05-18T23:52:36.281Z,2.08
2023-05-18T23:55:06.112Z,1.92
2023-05-18T23:57:33.180Z,1.60
